Alvin, Illinois
Current Conditions -  °F | °C
As of 1:35 AM on Saturday 29 Nov 2014 (Local Time) from KDNV Reporting Station
Clear Clear  
Wind Chill: 25°   Ceiling: Unl
Heat Index: 34°   Visibility: 10mi
Dew Point: 28°   Wind: 12mph
Humidity: 78%   Direction: 180°S
Pressure: 29.88"   Gusts: NA
Location:  40.31°N, 87.61°W
Report Text: KDNV 290735Z AUTO 18010KT 10SM CLR 01/M02 A2988 RMK AO2 T00101025
Loading
Personal Weather Stations






























Interactive Weather Map New forecast layout! Learn more

10-Day Weather Forecast

Advertisements
Track Severe Weather on mobile